createdAt,value
2023-02-18T00:01:21.076Z,10.28
2023-02-18T00:03:48.797Z,10.30
2023-02-18T00:06:24.792Z,10.30
2023-02-18T00:08:52.213Z,10.32
2023-02-18T00:11:20.121Z,10.33
2023-02-18T00:13:51.616Z,10.32
2023-02-18T00:16:18.466Z,10.32
2023-02-18T00:18:45.254Z,10.33
2023-02-18T00:21:12.282Z,10.33
2023-02-18T00:23:38.942Z,10.35
2023-02-18T00:26:12.107Z,10.38
2023-02-18T00:28:41.224Z,10.39
2023-02-18T00:31:15.570Z,10.39
2023-02-18T00:33:42.812Z,10.38
2023-02-18T00:36:12.257Z,10.40
2023-02-18T00:38:39.370Z,10.43
2023-02-18T00:41:06.930Z,10.45
2023-02-18T00:43:33.972Z,10.47
2023-02-18T00:46:02.195Z,10.45
2023-02-18T00:48:29.035Z,10.45
2023-02-18T00:50:55.785Z,10.45
2023-02-18T00:53:23.158Z,10.46
2023-02-18T00:55:49.874Z,10.47
2023-02-18T00:58:17.214Z,10.48
2023-02-18T01:00:44.332Z,10.47
2023-02-18T01:03:12.386Z,10.48
2023-02-18T01:05:39.712Z,10.49
2023-02-18T01:08:07.634Z,10.49
2023-02-18T01:10:35.600Z,10.49
2023-02-18T01:13:04.832Z,10.50
2023-02-18T01:15:31.833Z,10.45
2023-02-18T01:17:58.711Z,10.44
2023-02-18T01:20:25.742Z,10.44
2023-02-18T01:22:52.709Z,10.46
2023-02-18T01:25:19.364Z,10.47
2023-02-18T01:27:46.119Z,10.45
2023-02-18T01:30:15.437Z,10.44
2023-02-18T01:32:42.261Z,10.42
2023-02-18T01:35:13.913Z,10.44
2023-02-18T01:37:40.687Z,10.48
2023-02-18T01:40:08.394Z,10.50
2023-02-18T01:42:35.238Z,10.51
2023-02-18T01:45:39.214Z,10.51
2023-02-18T01:48:09.364Z,10.51
2023-02-18T01:50:41.149Z,10.49
2023-02-18T01:53:08.776Z,10.49
2023-02-18T01:55:37.273Z,10.46
2023-02-18T01:58:06.075Z,10.48
2023-02-18T02:00:32.970Z,10.49
2023-02-18T02:02:59.877Z,10.49
2023-02-18T02:05:32.008Z,10.51
2023-02-18T02:07:59.859Z,10.46
2023-02-18T02:10:39.017Z,10.46
2023-02-18T02:13:32.096Z,10.48
2023-02-18T02:16:05.686Z,10.47
2023-02-18T02:18:45.443Z,10.50
2023-02-18T02:21:33.461Z,10.52
2023-02-18T02:24:17.257Z,10.49
2023-02-18T02:26:53.068Z,10.46
2023-02-18T02:29:43.269Z,10.45
2023-02-18T02:32:24.905Z,10.43
2023-02-18T02:35:24.606Z,10.44
2023-02-18T02:38:19.749Z,10.43
2023-02-18T02:40:55.486Z,10.44
2023-02-18T02:43:39.012Z,10.44
2023-02-18T02:46:28.716Z,10.46
2023-02-18T02:49:15.949Z,10.48
2023-02-18T02:51:51.090Z,10.49
2023-02-18T02:54:24.361Z,10.49
2023-02-18T02:57:14.148Z,10.52
2023-02-18T02:59:59.800Z,10.54
2023-02-18T03:03:04.725Z,10.52
2023-02-18T03:06:11.505Z,10.52
2023-02-18T03:08:49.921Z,10.51
2023-02-18T03:11:18.165Z,10.50
2023-02-18T03:14:03.033Z,10.52
2023-02-18T03:16:47.299Z,10.51
2023-02-18T03:19:31.949Z,10.50
2023-02-18T03:22:13.010Z,10.48
2023-02-18T03:24:44.925Z,10.47
2023-02-18T03:27:18.050Z,10.49
2023-02-18T03:29:50.741Z,10.44
2023-02-18T03:32:19.523Z,10.46
2023-02-18T03:34:49.220Z,10.45
2023-02-18T03:37:16.349Z,10.45
2023-02-18T03:39:46.436Z,10.39
2023-02-18T03:42:13.962Z,10.40
2023-02-18T03:44:40.713Z,10.41
2023-02-18T03:47:07.530Z,10.43
2023-02-18T03:49:34.175Z,10.44
2023-02-18T03:52:00.926Z,10.46
2023-02-18T03:54:27.616Z,10.47
2023-02-18T03:56:54.873Z,10.47
2023-02-18T03:59:21.598Z,10.48
2023-02-18T04:01:48.368Z,10.49
2023-02-18T04:04:15.085Z,10.50
2023-02-18T04:06:41.809Z,10.47
2023-02-18T04:09:09.219Z,10.40
2023-02-18T04:11:40.750Z,10.38
2023-02-18T04:14:08.250Z,10.39
2023-02-18T04:16:34.995Z,10.40
2023-02-18T04:19:01.803Z,10.37
2023-02-18T04:21:28.500Z,10.42
2023-02-18T04:23:55.212Z,10.42
2023-02-18T04:26:22.033Z,10.42
2023-02-18T04:28:48.897Z,10.43
2023-02-18T04:31:15.687Z,10.43
2023-02-18T04:33:42.586Z,10.38
2023-02-18T04:36:10.309Z,10.37
2023-02-18T04:38:37.149Z,10.38
2023-02-18T04:41:03.932Z,10.40
2023-02-18T04:43:30.715Z,10.42
2023-02-18T04:45:57.397Z,10.43
2023-02-18T04:48:24.208Z,10.45
2023-02-18T04:50:50.980Z,10.45
2023-02-18T04:53:17.728Z,10.44
2023-02-18T04:55:44.393Z,10.44
2023-02-18T04:58:11.208Z,10.44
2023-02-18T05:00:37.885Z,10.44
2023-02-18T05:03:04.634Z,10.44
2023-02-18T05:05:31.492Z,10.46
2023-02-18T05:07:58.302Z,10.40
2023-02-18T05:10:25.022Z,10.38
2023-02-18T05:12:51.790Z,10.36
2023-02-18T05:15:18.713Z,10.40
2023-02-18T05:17:45.538Z,10.42
2023-02-18T05:20:12.529Z,10.44
2023-02-18T05:22:39.274Z,10.47
2023-02-18T05:25:06.456Z,10.48
2023-02-18T05:27:33.322Z,10.49
2023-02-18T05:30:00.308Z,10.50
2023-02-18T05:32:27.196Z,10.50
2023-02-18T05:34:53.882Z,10.50
2023-02-18T05:37:20.633Z,10.50
2023-02-18T05:39:47.337Z,10.47
2023-02-18T05:42:14.239Z,10.45
2023-02-18T05:44:40.952Z,10.46
2023-02-18T05:47:11.611Z,10.47
2023-02-18T05:49:40.380Z,10.49
2023-02-18T05:52:07.377Z,10.45
2023-02-18T05:54:35.443Z,10.46
2023-02-18T05:57:02.477Z,10.45
2023-02-18T05:59:29.717Z,10.45
2023-02-18T06:01:56.547Z,10.43
2023-02-18T06:04:23.718Z,10.45
2023-02-18T06:06:50.428Z,10.45
2023-02-18T06:09:17.311Z,10.43
2023-02-18T06:11:44.296Z,10.46
2023-02-18T06:14:11.164Z,10.47
2023-02-18T06:16:37.935Z,10.50
2023-02-18T06:19:04.878Z,10.49
2023-02-18T06:21:31.613Z,10.46
2023-02-18T06:23:58.496Z,10.44
2023-02-18T06:26:25.306Z,10.45
2023-02-18T06:28:52.050Z,10.47
2023-02-18T06:31:18.829Z,10.48
2023-02-18T06:33:45.732Z,10.48
2023-02-18T06:36:13.549Z,10.48
2023-02-18T06:38:41.680Z,10.48
2023-02-18T06:41:08.749Z,10.46
2023-02-18T06:43:35.740Z,10.47
2023-02-18T06:46:03.586Z,10.49
2023-02-18T06:48:30.436Z,10.49
2023-02-18T06:50:57.428Z,10.47
2023-02-18T06:53:24.121Z,10.48
2023-02-18T06:55:51.010Z,10.47
2023-02-18T06:58:17.884Z,10.44
2023-02-18T07:00:45.108Z,10.42
2023-02-18T07:03:14.312Z,10.44
2023-02-18T07:05:42.076Z,10.47
2023-02-18T07:08:09.013Z,10.49
2023-02-18T07:10:35.801Z,10.47
2023-02-18T07:13:02.707Z,10.40
2023-02-18T07:15:29.411Z,10.39
2023-02-18T07:17:56.540Z,10.40
2023-02-18T07:20:23.340Z,10.41
2023-02-18T07:22:50.498Z,10.43
2023-02-18T07:25:17.397Z,10.45
2023-02-18T07:27:44.169Z,10.51
2023-02-18T07:30:11.240Z,10.54
2023-02-18T07:32:38.047Z,10.50
2023-02-18T07:35:06.153Z,10.53
2023-02-18T07:37:33.146Z,10.52
2023-02-18T07:39:59.942Z,10.55
2023-02-18T07:42:26.982Z,10.57
2023-02-18T07:44:54.076Z,10.60
2023-02-18T07:47:20.903Z,10.62
2023-02-18T07:49:47.869Z,10.62
2023-02-18T07:52:15.937Z,10.63
2023-02-18T07:54:42.821Z,10.64
2023-02-18T07:57:09.777Z,10.66
2023-02-18T07:59:36.608Z,10.67
2023-02-18T08:02:05.667Z,10.66
2023-02-18T08:04:32.442Z,10.61
2023-02-18T08:06:59.251Z,10.63
2023-02-18T08:09:26.033Z,10.65
2023-02-18T08:11:52.830Z,10.65
2023-02-18T08:14:19.508Z,10.69
2023-02-18T08:16:46.353Z,10.68
2023-02-18T08:19:13.097Z,10.66
2023-02-18T08:21:39.923Z,10.65
2023-02-18T08:24:08.175Z,10.63
2023-02-18T08:26:35.078Z,10.66
2023-02-18T08:29:01.773Z,10.69
2023-02-18T08:31:30.000Z,10.69
2023-02-18T08:33:57.913Z,10.66
2023-02-18T08:36:24.984Z,10.67
2023-02-18T08:38:51.772Z,10.68
2023-02-18T08:41:19.097Z,10.68
2023-02-18T08:43:46.759Z,10.69
2023-02-18T08:46:16.085Z,10.70
2023-02-18T08:48:44.619Z,10.74
2023-02-18T08:51:13.912Z,10.72
2023-02-18T08:53:40.734Z,10.74
2023-02-18T08:56:09.187Z,10.72
2023-02-18T08:58:37.423Z,10.71
2023-02-18T09:01:06.565Z,10.73
2023-02-18T09:03:34.228Z,10.73
2023-02-18T09:06:01.235Z,10.74
2023-02-18T09:08:29.476Z,10.72
2023-02-18T09:11:02.311Z,10.74
2023-02-18T09:13:29.121Z,10.75
2023-02-18T09:16:04.795Z,10.79
2023-02-18T09:18:32.097Z,10.71
2023-02-18T09:20:59.948Z,10.70
2023-02-18T09:23:28.292Z,10.68
2023-02-18T09:25:55.233Z,10.67
2023-02-18T09:28:22.734Z,10.65
2023-02-18T09:30:49.616Z,10.69
2023-02-18T09:33:16.996Z,10.71
2023-02-18T09:35:45.531Z,10.75
2023-02-18T09:38:15.108Z,10.79
2023-02-18T09:40:50.984Z,10.79
2023-02-18T09:43:31.843Z,10.84
2023-02-18T09:45:59.500Z,10.85
2023-02-18T09:48:28.805Z,10.88
2023-02-18T09:50:55.760Z,10.89
2023-02-18T09:53:23.464Z,10.93
2023-02-18T09:55:56.280Z,10.94
2023-02-18T09:58:33.795Z,10.99
2023-02-18T10:01:37.691Z,11.02
2023-02-18T10:04:17.303Z,11.07
2023-02-18T10:06:46.225Z,11.05
2023-02-18T10:09:23.300Z,11.02
2023-02-18T10:11:56.987Z,11.09
2023-02-18T10:14:24.594Z,11.12
2023-02-18T10:16:51.543Z,11.21
2023-02-18T10:19:25.712Z,11.17
2023-02-18T10:21:53.640Z,11.17
2023-02-18T10:24:26.098Z,11.17
2023-02-18T10:26:52.999Z,11.16
2023-02-18T10:29:21.794Z,11.15
2023-02-18T10:31:57.404Z,11.18
2023-02-18T10:34:57.758Z,11.22
2023-02-18T10:37:32.398Z,11.26
2023-02-18T10:40:23.907Z,11.28
2023-02-18T10:43:06.032Z,11.30
2023-02-18T10:45:33.064Z,11.33
2023-02-18T10:48:26.016Z,11.33
2023-02-18T10:50:52.788Z,11.36
2023-02-18T10:53:33.988Z,11.39
2023-02-18T10:56:00.915Z,11.42
2023-02-18T10:58:28.235Z,11.36
2023-02-18T11:00:55.685Z,11.40
2023-02-18T11:03:25.158Z,11.44
2023-02-18T11:05:57.885Z,11.47
2023-02-18T11:08:27.394Z,11.49
2023-02-18T11:10:54.434Z,11.51
2023-02-18T11:13:29.517Z,11.51
2023-02-18T11:16:03.936Z,11.50
2023-02-18T11:18:38.742Z,11.50
2023-02-18T11:21:21.709Z,11.49
2023-02-18T11:23:51.689Z,11.50
2023-02-18T11:26:25.428Z,11.54
2023-02-18T11:28:58.629Z,11.53
2023-02-18T11:31:27.637Z,11.57
2023-02-18T11:33:57.618Z,11.62
2023-02-18T11:36:25.594Z,11.60
2023-02-18T11:38:56.811Z,11.59
2023-02-18T11:41:36.336Z,11.60
2023-02-18T11:44:06.388Z,11.63
2023-02-18T11:46:33.605Z,11.65
2023-02-18T11:49:22.731Z,11.71
2023-02-18T11:51:50.681Z,11.73
2023-02-18T11:54:31.563Z,11.72
2023-02-18T11:57:01.508Z,11.74
2023-02-18T11:59:30.458Z,11.76
2023-02-18T12:02:09.519Z,11.79
2023-02-18T12:05:13.966Z,11.83
2023-02-18T12:07:53.121Z,11.86
2023-02-18T12:10:34.489Z,11.87
2023-02-18T12:13:08.219Z,11.88
2023-02-18T12:16:05.008Z,11.88
2023-02-18T12:18:47.081Z,11.87
2023-02-18T12:21:21.456Z,11.85
2023-02-18T12:24:33.790Z,11.86
2023-02-18T12:27:07.662Z,11.89
2023-02-18T12:30:02.205Z,11.93
2023-02-18T12:32:46.160Z,11.94
2023-02-18T12:35:34.326Z,11.96
2023-02-18T12:38:53.289Z,11.94
2023-02-18T12:41:31.970Z,11.96
2023-02-18T12:44:14.148Z,12.01
2023-02-18T12:47:02.552Z,12.06
2023-02-18T12:49:35.439Z,12.01
2023-02-18T12:52:22.465Z,12.04
2023-02-18T12:54:56.581Z,12.09
2023-02-18T12:57:41.309Z,12.04
2023-02-18T13:00:38.761Z,12.07
2023-02-18T13:03:50.169Z,12.10
2023-02-18T13:06:47.840Z,12.13
2023-02-18T13:09:36.094Z,12.12
2023-02-18T13:12:23.040Z,12.11
2023-02-18T13:14:57.408Z,12.12
2023-02-18T13:17:26.315Z,12.13
2023-02-18T13:19:57.207Z,12.14
2023-02-18T13:22:25.994Z,12.13
2023-02-18T13:24:54.788Z,12.14
2023-02-18T13:27:32.007Z,12.15
2023-02-18T13:30:17.530Z,12.18
2023-02-18T13:33:18.008Z,12.21
2023-02-18T13:35:48.824Z,12.19
2023-02-18T13:38:57.033Z,12.18
2023-02-18T13:41:26.111Z,12.20
2023-02-18T13:43:53.706Z,12.21
2023-02-18T13:46:22.643Z,12.19
2023-02-18T13:49:15.772Z,12.21
2023-02-18T13:51:48.738Z,12.23
2023-02-18T13:54:23.930Z,12.25
2023-02-18T13:56:56.921Z,12.27
2023-02-18T13:59:37.337Z,12.25
2023-02-18T14:02:22.914Z,12.25
2023-02-18T14:04:55.144Z,12.25
2023-02-18T14:07:25.002Z,12.25
2023-02-18T14:09:53.194Z,12.26
2023-02-18T14:12:39.173Z,12.27
2023-02-18T14:15:18.090Z,12.27
2023-02-18T14:18:12.912Z,12.27
2023-02-18T14:20:39.686Z,12.25
2023-02-18T14:23:18.258Z,12.25
2023-02-18T14:26:14.039Z,12.21
2023-02-18T14:28:49.485Z,12.19
2023-02-18T14:31:16.253Z,12.20
2023-02-18T14:34:00.605Z,12.20
2023-02-18T14:36:45.119Z,12.19
2023-02-18T14:39:36.359Z,12.23
2023-02-18T14:42:18.372Z,12.19
2023-02-18T14:45:00.432Z,12.20
2023-02-18T14:48:00.957Z,12.19
2023-02-18T14:50:32.734Z,12.21
2023-02-18T14:53:03.509Z,12.24
2023-02-18T14:55:33.326Z,12.26
2023-02-18T14:58:06.752Z,12.23
2023-02-18T15:00:36.036Z,12.22
2023-02-18T15:03:02.692Z,12.10
2023-02-18T15:05:31.499Z,12.09
2023-02-18T15:08:00.701Z,12.11
2023-02-18T15:10:47.661Z,12.10
2023-02-18T15:13:31.494Z,12.10
2023-02-18T15:16:02.851Z,11.98
2023-02-18T15:18:40.796Z,11.97
2023-02-18T15:21:20.144Z,11.94
2023-02-18T15:23:47.380Z,11.88
2023-02-18T15:26:15.333Z,11.80
2023-02-18T15:28:52.664Z,11.79
2023-02-18T15:31:25.744Z,11.83
2023-02-18T15:33:52.596Z,11.82
2023-02-18T15:36:19.393Z,11.79
2023-02-18T15:38:46.125Z,11.79
2023-02-18T15:41:17.020Z,11.72
2023-02-18T15:44:04.020Z,11.72
2023-02-18T15:46:32.088Z,11.68
2023-02-18T15:48:59.088Z,11.70
2023-02-18T15:51:28.292Z,11.71
2023-02-18T15:53:58.237Z,11.73
2023-02-18T15:56:36.897Z,11.76
2023-02-18T15:59:35.414Z,11.75
2023-02-18T16:02:08.263Z,11.75
2023-02-18T16:04:39.670Z,11.75
2023-02-18T16:07:25.038Z,11.69
2023-02-18T16:10:07.703Z,11.70
2023-02-18T16:12:34.960Z,11.74
2023-02-18T16:15:01.689Z,11.74
2023-02-18T16:17:29.887Z,11.70
2023-02-18T16:20:05.324Z,11.64
2023-02-18T16:22:37.681Z,11.66
2023-02-18T16:25:13.592Z,11.70
2023-02-18T16:27:53.393Z,11.74
2023-02-18T16:30:22.095Z,11.74
2023-02-18T16:32:49.100Z,11.74
2023-02-18T16:35:16.081Z,11.73
2023-02-18T16:37:43.331Z,11.74
2023-02-18T16:40:31.938Z,11.71
2023-02-18T16:43:01.996Z,11.68
2023-02-18T16:45:41.176Z,11.62
2023-02-18T16:48:17.336Z,11.60
2023-02-18T16:50:44.156Z,11.61
2023-02-18T16:53:14.129Z,11.58
2023-02-18T16:55:40.917Z,11.59
2023-02-18T16:58:07.660Z,11.61
2023-02-18T17:00:34.677Z,11.55
2023-02-18T17:03:01.693Z,11.51
2023-02-18T17:05:31.564Z,11.51
2023-02-18T17:08:13.241Z,11.52
2023-02-18T17:10:40.068Z,11.50
2023-02-18T17:13:06.737Z,11.48
2023-02-18T17:15:35.266Z,11.51
2023-02-18T17:18:04.584Z,11.52
2023-02-18T17:20:32.428Z,11.48
2023-02-18T17:22:59.786Z,11.47
2023-02-18T17:25:35.764Z,11.46
2023-02-18T17:28:02.757Z,11.44
2023-02-18T17:30:30.537Z,11.40
2023-02-18T17:33:01.792Z,11.34
2023-02-18T17:35:29.781Z,11.33
2023-02-18T17:37:56.618Z,11.33
2023-02-18T17:40:25.941Z,11.31
2023-02-18T17:42:54.132Z,11.27
2023-02-18T17:45:23.929Z,11.20
2023-02-18T17:47:50.637Z,11.13
2023-02-18T17:50:17.939Z,11.09
2023-02-18T17:52:44.718Z,11.08
2023-02-18T17:55:17.431Z,11.05
2023-02-18T17:57:46.991Z,11.02
2023-02-18T18:00:15.930Z,10.98
2023-02-18T18:02:42.777Z,10.97
2023-02-18T18:05:22.185Z,10.95
2023-02-18T18:07:50.263Z,10.93
2023-02-18T18:10:18.756Z,10.89
2023-02-18T18:12:45.906Z,10.87
2023-02-18T18:15:23.142Z,10.86
2023-02-18T18:17:50.005Z,10.85
2023-02-18T18:20:16.966Z,10.85
2023-02-18T18:22:43.697Z,10.86
2023-02-18T18:25:21.074Z,10.89
2023-02-18T18:27:47.976Z,10.90
2023-02-18T18:30:14.866Z,10.90
2023-02-18T18:32:41.689Z,10.87
2023-02-18T18:35:19.870Z,10.88
2023-02-18T18:37:46.994Z,10.88
2023-02-18T18:40:13.748Z,10.88
2023-02-18T18:42:40.592Z,10.85
2023-02-18T18:45:07.981Z,10.80
2023-02-18T18:47:34.652Z,10.81
2023-02-18T18:50:01.285Z,10.82
2023-02-18T18:52:28.078Z,10.80
2023-02-18T18:54:54.731Z,10.74
2023-02-18T18:57:21.498Z,10.77
2023-02-18T18:59:48.675Z,10.78
2023-02-18T19:02:16.808Z,10.73
2023-02-18T19:04:43.416Z,10.74
2023-02-18T19:07:10.545Z,10.78
2023-02-18T19:09:37.325Z,10.80
2023-02-18T19:12:04.240Z,10.80
2023-02-18T19:14:30.961Z,10.81
2023-02-18T19:16:57.823Z,10.76
2023-02-18T19:19:24.656Z,10.73
2023-02-18T19:21:52.956Z,10.75
2023-02-18T19:24:19.596Z,10.77
2023-02-18T19:26:46.407Z,10.78
2023-02-18T19:29:13.139Z,10.80
2023-02-18T19:31:39.982Z,10.80
2023-02-18T19:34:06.677Z,10.77
2023-02-18T19:36:33.466Z,10.68
2023-02-18T19:39:00.124Z,10.66
2023-02-18T19:41:28.265Z,10.64
2023-02-18T19:43:55.019Z,10.63
2023-02-18T19:46:21.809Z,10.65
2023-02-18T19:48:50.422Z,10.64
2023-02-18T19:51:17.243Z,10.65
2023-02-18T19:53:43.917Z,10.63
2023-02-18T19:56:10.740Z,10.62
2023-02-18T19:58:40.146Z,10.66
2023-02-18T20:01:19.923Z,10.63
2023-02-18T20:03:47.422Z,10.55
2023-02-18T20:06:18.325Z,10.54
2023-02-18T20:08:45.798Z,10.55
2023-02-18T20:11:12.878Z,10.55
2023-02-18T20:13:39.624Z,10.55
2023-02-18T20:16:07.917Z,10.55
2023-02-18T20:18:34.784Z,10.58
2023-02-18T20:21:01.470Z,10.58
2023-02-18T20:23:28.200Z,10.60
2023-02-18T20:25:54.824Z,10.59
2023-02-18T20:28:21.540Z,10.60
2023-02-18T20:30:48.192Z,10.62
2023-02-18T20:33:14.985Z,10.60
2023-02-18T20:35:41.661Z,10.52
2023-02-18T20:38:08.478Z,10.45
2023-02-18T20:40:35.141Z,10.46
2023-02-18T20:43:01.977Z,10.45
2023-02-18T20:45:28.716Z,10.39
2023-02-18T20:47:55.464Z,10.39
2023-02-18T20:50:22.194Z,10.39
2023-02-18T20:52:49.020Z,10.40
2023-02-18T20:55:15.692Z,10.36
2023-02-18T20:57:42.408Z,10.38
2023-02-18T21:00:09.731Z,10.35
2023-02-18T21:02:36.445Z,10.33
2023-02-18T21:05:03.137Z,10.34
2023-02-18T21:07:29.869Z,10.27
2023-02-18T21:09:56.515Z,10.28
2023-02-18T21:12:23.256Z,10.27
2023-02-18T21:14:49.967Z,10.26
2023-02-18T21:17:16.787Z,10.28
2023-02-18T21:19:43.497Z,10.31
2023-02-18T21:22:10.274Z,10.34
2023-02-18T21:24:36.995Z,10.34
2023-02-18T21:27:03.911Z,10.31
2023-02-18T21:29:30.711Z,10.27
2023-02-18T21:31:57.485Z,10.31
2023-02-18T21:34:26.028Z,10.29
2023-02-18T21:36:52.818Z,10.24
2023-02-18T21:39:19.524Z,10.23
2023-02-18T21:41:46.311Z,10.25
2023-02-18T21:44:12.979Z,10.25
2023-02-18T21:46:40.090Z,10.18
2023-02-18T21:49:06.962Z,10.13
2023-02-18T21:51:59.555Z,10.10
2023-02-18T21:54:28.890Z,10.12
2023-02-18T21:56:56.636Z,10.12
2023-02-18T21:59:24.896Z,10.10
2023-02-18T22:01:51.590Z,10.07
2023-02-18T22:04:18.492Z,10.04
2023-02-18T22:06:45.267Z,10.00
2023-02-18T22:09:12.866Z,10.00
2023-02-18T22:11:41.996Z,10.01
2023-02-18T22:14:10.409Z,10.05
2023-02-18T22:16:37.268Z,10.07
2023-02-18T22:19:04.337Z,10.08
2023-02-18T22:21:31.113Z,10.05
2023-02-18T22:23:57.860Z,9.98
2023-02-18T22:26:24.796Z,9.92
2023-02-18T22:28:56.395Z,9.92
2023-02-18T22:31:24.395Z,9.89
2023-02-18T22:33:55.548Z,9.87
2023-02-18T22:36:23.652Z,9.83
2023-02-18T22:38:50.848Z,9.80
2023-02-18T22:41:19.149Z,9.79
2023-02-18T22:43:46.432Z,9.71
2023-02-18T22:46:15.671Z,9.71
2023-02-18T22:48:43.033Z,9.73
2023-02-18T22:51:12.764Z,9.70
2023-02-18T22:53:40.120Z,9.63
2023-02-18T22:56:13.912Z,9.64
2023-02-18T22:58:41.795Z,9.64
2023-02-18T23:01:15.586Z,9.63
2023-02-18T23:03:42.317Z,9.60
2023-02-18T23:06:08.959Z,9.62
2023-02-18T23:08:35.728Z,9.55
2023-02-18T23:11:04.469Z,9.57
2023-02-18T23:13:31.313Z,9.49
2023-02-18T23:15:59.445Z,9.40
2023-02-18T23:18:26.734Z,9.42
2023-02-18T23:21:12.579Z,9.47
2023-02-18T23:23:39.464Z,9.46
2023-02-18T23:26:06.302Z,9.50
2023-02-18T23:28:47.658Z,9.47
2023-02-18T23:31:23.922Z,9.40
2023-02-18T23:33:55.968Z,9.40
2023-02-18T23:36:24.909Z,9.39
2023-02-18T23:38:54.027Z,9.39
2023-02-18T23:41:21.481Z,9.43
2023-02-18T23:43:48.910Z,9.45
2023-02-18T23:46:16.938Z,9.39
2023-02-18T23:48:43.785Z,9.42
2023-02-18T23:51:13.378Z,9.38
2023-02-18T23:53:40.383Z,9.38
2023-02-18T23:56:25.994Z,9.35
2023-02-18T23:58:57.279Z,9.37
